Oxford, OH (45056)

4:49 AM EST on February 12, 2016 (GMT -0500)
Oxford South | | Change Station
CLOSE
Current Station
Personal Weather Station
Location: Oxford, OH
Elevation: 923 ft
Nearby Weather Stations

Elev 923 ft 39.49 °N, 84.74 °W | Updated 45 seconds ago

Overcast
Overcast
10.9 °F
Feels Like 11 °F
N
0.0
Wind Variable Wind from NW
Gusts 0.0 mph

Today
High -- | Low -- °F
--% Chance of Precip.
Yesterday
High -- | Low -- °F
Precip. -- in
Pressure 30.27 in
Visibility 10.0 miles
Clouds Clear
Windchill 11 °F
Dew Point 8 °F
Humidity 89%
Rainfall 0.00 in
Snow Depth Not available.
7:35 AM 6:11 PM
Waxing Crescent, 19% visible
METAR KHAO 120853Z AUTO 00000KT 10SM CLR M11/M13 A3024 RMK AO2 SLP251 T11111128 56016 TSNO
Pressure 30.27 in
Visibility 10.0 miles
Clouds Clear
Windchill 11 °F
Dew Point 8 °F
Humidity 89%
Rainfall 0.00 in
Snow Depth Not available.
7:35 AM 6:11 PM
Waxing Crescent, 19% visible
METAR KHAO 120853Z AUTO 00000KT 10SM CLR M11/M13 A3024 RMK AO2 SLP251 T11111128 56016 TSNO

10-Day Weather Forecast

Almanac

Astronomy

Feb. 12, 2016 Rise Set
Actual Time
Civil Twilight
Nautical Twilight
Astronomical Twilight
Moon
Length of Visible Light
Length of Day
Tomorrow will be .
, % of the Moon is Illuminated

Today's Extremes

State Highs State Lows

Community

WunderPhotos

Upload Photos

1,892,286 photos uploaded!

WunderBlog® & News

Nearby

Air Quality

  Air Quality AQ Index Pollutant
Not available.

Snow Depth

Station Depth Elevation

Earthquake Activity

City Distance Mag. Time & Date
Minimum magnitude displayed is 2.5.

Coastal Water Temperatures

Place Temperature

Stations

Nearby Weather Stations

Station Location Temp. Windchill Dew Point Humidity Wind Precip. Elev Updated Type
                   

Watches & Warnings

There are currently no watches in effect.